Time;durP1;ratioP1;P1;durP2;ratioP2;P2;SDS_P1;SDS_P2;PMS_P1;PMS_P2;Temp;Humidity;BMP_temperature;BMP_pressure;BME280_temperature;BME280_humidity;BME280_pressure;Samples;Min_cycle;Max_cycle;Signal;HPM_P1;HPM_P2
2021/10/21 00:01:06;;;;;;;0.30;0.30;;;;;;;;;;5111446;28;20518;-67
2021/10/21 00:03:32;;;;;;;0.30;0.30;;;;;;;;;;5112111;28;20164;-68
2021/10/21 00:05:58;;;;;;;0.30;0.30;;;;;;;;;;5112026;28;20753;-68
2021/10/21 00:08:24;;;;;;;0.30;0.20;;;;;;;;;;5111907;28;20442;-68
2021/10/21 00:10:50;;;;;;;0.30;0.30;;;;;;;;;;5111487;28;20437;-68
2021/10/21 00:13:16;;;;;;;0.30;0.20;;;;;;;;;;5112128;28;20436;-68
2021/10/21 00:15:43;;;;;;;0.30;0.20;;;;;;;;;;5111868;28;20412;-68
2021/10/21 00:18:09;;;;;;;0.30;0.30;;;;;;;;;;5111779;28;20403;-68
2021/10/21 00:20:35;;;;;;;0.30;0.30;;;;;;;;;;5111592;28;20812;-68
2021/10/21 00:23:01;;;;;;;0.30;0.30;;;;;;;;;;5111909;28;20401;-67
2021/10/21 00:25:27;;;;;;;0.30;0.30;;;;;;;;;;5110325;28;20768;-68
2021/10/21 00:27:53;;;;;;;0.30;0.20;;;;;;;;;;5113077;28;20403;-68
2021/10/21 00:30:19;;;;;;;0.30;0.20;;;;;;;;;;5115144;28;20423;-67
2021/10/21 00:32:44;;;;;;;0.30;0.30;;;;;;;;;;5115474;28;20428;-67
2021/10/21 00:35:11;;;;;;;0.30;0.20;;;;;;;;;;5115698;28;20412;-67
2021/10/21 00:37:37;;;;;;;0.30;0.20;;;;;;;;;;5115321;28;20956;-68
2021/10/21 00:40:04;;;;;;;0.30;0.30;;;;;;;;;;5114999;28;20425;-67
2021/10/21 00:42:30;;;;;;;0.30;0.20;;;;;;;;;;5115186;28;20292;-67
2021/10/21 00:44:56;;;;;;;0.30;0.30;;;;;;;;;;5115224;28;20440;-68
2021/10/21 00:47:22;;;;;;;0.53;0.30;;;;;;;;;;5115178;28;20409;-68
2021/10/21 00:49:48;;;;;;;0.30;0.30;;;;;;;;;;5137040;22;20419;-65
2021/10/21 00:52:15;;;;;;;0.30;0.30;;;;;;;;;;5073152;28;20203;-65
2021/10/21 00:54:41;;;;;;;0.30;0.30;;;;;;;;;;5074523;28;20406;-66
2021/10/21 00:57:08;;;;;;;0.30;0.30;;;;;;;;;;5074721;28;20240;-65
2021/10/21 00:59:35;;;;;;;0.30;0.30;;;;;;;;;;5073139;28;20476;-65
2021/10/21 01:02:01;;;;;;;0.30;0.30;;;;;;;;;;5074035;28;20465;-65
2021/10/21 01:04:27;;;;;;;0.30;0.20;;;;;;;;;;5074301;28;20459;-65
2021/10/21 01:06:53;;;;;;;0.30;0.30;;;;;;;;;;5089993;28;20399;-65
2021/10/21 01:09:19;;;;;;;0.30;0.20;;;;;;;;;;5074315;28;20404;-65
2021/10/21 01:11:45;;;;;;;0.30;0.20;;;;;;;;;;5073963;28;20436;-65
2021/10/21 01:14:11;;;;;;;0.30;0.20;;;;;;;;;;5074297;28;20481;-65
2021/10/21 01:16:41;;;;;;;0.30;0.30;;;;;;;;;;5074247;28;20411;-66
2021/10/21 01:19:17;;;;;;;0.30;0.30;;;;;;;;;;5074210;28;20170;-66
2021/10/21 01:21:44;;;;;;;0.30;0.20;;;;;;;;;;5073845;28;20206;-66
2021/10/21 01:24:10;;;;;;;0.30;0.20;;;;;;;;;;5074074;28;20261;-66
2021/10/21 01:26:36;;;;;;;0.30;0.30;;;;;;;;;;5072772;28;20172;-66
2021/10/21 01:29:02;;;;;;;0.30;0.30;;;;;;;;;;5074067;28;20898;-66
2021/10/21 01:31:28;;;;;;;0.30;0.20;;;;;;;;;;5072442;28;20831;-66
2021/10/21 01:33:54;;;;;;;0.30;0.20;;;;;;;;;;5073990;28;20184;-66
2021/10/21 01:36:20;;;;;;;0.30;0.20;;;;;;;;;;5073921;28;20456;-66
2021/10/21 01:38:46;;;;;;;0.30;0.30;;;;;;;;;;5073675;28;20419;-66
2021/10/21 01:41:12;;;;;;;0.30;0.20;;;;;;;;;;5073497;28;20954;-66
2021/10/21 01:43:42;;;;;;;0.30;0.20;;;;;;;;;;5073826;28;20417;-66
2021/10/21 01:46:09;;;;;;;0.30;0.20;;;;;;;;;;5073975;28;20246;-66
2021/10/21 01:48:35;;;;;;;0.30;0.20;;;;;;;;;;5074270;28;20266;-66
2021/10/21 01:51:01;;;;;;;0.30;0.20;;;;;;;;;;5073710;28;20260;-67
2021/10/21 01:53:27;;;;;;;0.30;0.20;;;;;;;;;;5073640;28;20581;-66
2021/10/21 01:55:53;;;;;;;0.30;0.30;;;;;;;;;;5073654;28;20890;-66
2021/10/21 01:58:18;;;;;;;0.30;0.20;;;;;;;;;;5073011;28;20434;-66
2021/10/21 02:00:44;;;;;;;0.30;0.30;;;;;;;;;;5073151;28;20445;-66
2021/10/21 02:03:10;;;;;;;0.30;0.30;;;;;;;;;;5073481;28;20962;-67
2021/10/21 02:05:36;;;;;;;0.30;0.20;;;;;;;;;;5073702;28;20401;-66
2021/10/21 02:08:02;;;;;;;0.30;0.20;;;;;;;;;;5073313;28;20497;-66
2021/10/21 02:10:28;;;;;;;0.30;0.20;;;;;;;;;;5072898;28;20924;-66
2021/10/21 02:12:54;;;;;;;0.30;0.30;;;;;;;;;;5073200;28;20171;-66
2021/10/21 02:15:20;;;;;;;0.30;0.20;;;;;;;;;;5073077;28;20496;-66
2021/10/21 02:17:46;;;;;;;0.30;0.20;;;;;;;;;;5073049;28;20412;-67
2021/10/21 02:20:13;;;;;;;0.30;0.20;;;;;;;;;;5071480;28;20453;-67
2021/10/21 02:22:39;;;;;;;0.30;0.30;;;;;;;;;;5072944;28;20196;-66
2021/10/21 02:25:06;;;;;;;0.30;0.30;;;;;;;;;;5072778;28;20406;-67
2021/10/21 02:27:32;;;;;;;0.30;0.30;;;;;;;;;;5072788;28;20905;-66
2021/10/21 02:29:58;;;;;;;0.30;0.20;;;;;;;;;;5072518;28;20960;-66
2021/10/21 02:32:24;;;;;;;0.30;0.20;;;;;;;;;;5072489;28;20258;-66
2021/10/21 02:34:50;;;;;;;0.30;0.30;;;;;;;;;;5071304;28;20773;-66
2021/10/21 02:37:16;;;;;;;0.30;0.20;;;;;;;;;;5072554;28;20421;-66
2021/10/21 02:39:42;;;;;;;0.30;0.30;;;;;;;;;;5072282;28;20402;-66
2021/10/21 02:42:08;;;;;;;0.30;0.30;;;;;;;;;;5072319;28;20454;-66
2021/10/21 02:44:34;;;;;;;0.30;0.30;;;;;;;;;;5072586;28;20198;-66
2021/10/21 02:47:00;;;;;;;0.30;0.30;;;;;;;;;;5072519;28;20406;-66
2021/10/21 02:49:26;;;;;;;0.30;0.20;;;;;;;;;;5072347;28;20870;-66
2021/10/21 02:51:52;;;;;;;0.30;0.30;;;;;;;;;;5071520;28;20245;-66
2021/10/21 02:54:18;;;;;;;0.30;0.30;;;;;;;;;;5072292;28;20487;-66
2021/10/21 02:56:44;;;;;;;0.30;0.30;;;;;;;;;;5072294;28;20407;-66
2021/10/21 02:59:10;;;;;;;0.30;0.20;;;;;;;;;;5072084;28;20414;-66
2021/10/21 03:01:36;;;;;;;0.30;0.30;;;;;;;;;;5071693;28;20518;-66
2021/10/21 03:04:02;;;;;;;0.30;0.20;;;;;;;;;;5072247;28;20412;-66
2021/10/21 03:06:28;;;;;;;0.30;0.30;;;;;;;;;;5072080;28;20407;-66
2021/10/21 03:08:54;;;;;;;0.30;0.30;;;;;;;;;;5072094;28;20410;-66
2021/10/21 03:11:20;;;;;;;0.30;0.30;;;;;;;;;;5071798;28;20892;-65
2021/10/21 03:13:46;;;;;;;0.30;0.30;;;;;;;;;;5072015;28;20443;-71
2021/10/21 03:16:12;;;;;;;0.30;0.30;;;;;;;;;;5073232;28;20799;-65
2021/10/21 03:18:38;;;;;;;0.30;0.30;;;;;;;;;;5072593;28;20508;-65
2021/10/21 03:21:04;;;;;;;0.33;0.30;;;;;;;;;;5071450;28;20461;-65
2021/10/21 03:23:30;;;;;;;0.30;0.30;;;;;;;;;;5071886;28;20443;-65
2021/10/21 03:25:56;;;;;;;0.30;0.30;;;;;;;;;;5071921;28;20415;-65
2021/10/21 03:28:22;;;;;;;0.40;0.30;;;;;;;;;;5071742;28;20672;-65
2021/10/21 03:30:48;;;;;;;0.30;0.30;;;;;;;;;;5071645;28;20439;-65
2021/10/21 03:33:14;;;;;;;0.30;0.30;;;;;;;;;;5072341;28;20948;-65
2021/10/21 03:35:40;;;;;;;0.30;0.30;;;;;;;;;;5072263;28;20443;-65
2021/10/21 03:38:06;;;;;;;0.30;0.30;;;;;;;;;;5072156;28;20426;-65
2021/10/21 03:40:32;;;;;;;0.30;0.30;;;;;;;;;;5071209;28;20203;-65
2021/10/21 03:42:58;;;;;;;0.30;0.30;;;;;;;;;;5071587;28;20396;-65
2021/10/21 03:45:24;;;;;;;0.30;0.30;;;;;;;;;;5071603;28;20556;-65
2021/10/21 03:47:50;;;;;;;0.40;0.30;;;;;;;;;;5071598;28;20482;-65
2021/10/21 03:50:17;;;;;;;0.40;0.30;;;;;;;;;;5071180;28;20433;-65
2021/10/21 03:52:43;;;;;;;0.40;0.30;;;;;;;;;;5071262;28;20399;-65
2021/10/21 03:55:09;;;;;;;0.40;0.30;;;;;;;;;;5071453;28;20438;-65
2021/10/21 03:57:35;;;;;;;0.40;0.30;;;;;;;;;;5071763;28;20639;-65
2021/10/21 04:00:01;;;;;;;0.30;0.30;;;;;;;;;;5071342;28;20204;-65
2021/10/21 04:02:27;;;;;;;0.40;0.30;;;;;;;;;;5072212;28;20475;-65
2021/10/21 04:04:53;;;;;;;0.40;0.30;;;;;;;;;;5075298;28;20460;-65
2021/10/21 04:07:19;;;;;;;0.30;0.30;;;;;;;;;;5075372;28;20407;-65
2021/10/21 04:09:45;;;;;;;0.40;0.30;;;;;;;;;;5075229;28;20568;-65
2021/10/21 04:12:11;;;;;;;0.40;0.30;;;;;;;;;;5075098;28;20412;-65
2021/10/21 04:14:36;;;;;;;0.40;0.30;;;;;;;;;;5075199;28;20412;-65
2021/10/21 04:17:03;;;;;;;0.40;0.30;;;;;;;;;;5073914;28;20425;-65
2021/10/21 04:19:28;;;;;;;0.40;0.32;;;;;;;;;;5075006;28;20410;-66
2021/10/21 04:21:54;;;;;;;0.40;0.40;;;;;;;;;;5074612;28;20218;-65
2021/10/21 04:24:20;;;;;;;0.40;0.40;;;;;;;;;;5075072;28;20767;-65
2021/10/21 04:26:46;;;;;;;0.40;0.40;;;;;;;;;;5074958;28;20430;-65
2021/10/21 04:29:12;;;;;;;0.40;0.40;;;;;;;;;;5074916;28;20425;-66
2021/10/21 04:31:38;;;;;;;0.30;0.30;;;;;;;;;;5074598;28;20939;-65
2021/10/21 04:34:04;;;;;;;0.30;0.30;;;;;;;;;;5073485;28;20416;-65
2021/10/21 04:36:31;;;;;;;0.40;0.40;;;;;;;;;;5074753;28;20409;-65
2021/10/21 04:38:57;;;;;;;0.30;0.30;;;;;;;;;;5074906;28;20504;-65
2021/10/21 04:41:22;;;;;;;0.30;0.30;;;;;;;;;;5074441;28;20485;-65
2021/10/21 04:43:48;;;;;;;0.30;0.30;;;;;;;;;;5074690;28;20406;-65
2021/10/21 04:46:14;;;;;;;0.30;0.30;;;;;;;;;;5074847;28;20411;-65
2021/10/21 04:48:41;;;;;;;0.30;0.30;;;;;;;;;;5074744;28;20472;-65
2021/10/21 04:51:07;;;;;;;0.30;0.30;;;;;;;;;;5069737;28;20544;-65
2021/10/21 04:53:33;;;;;;;0.30;0.30;;;;;;;;;;5062219;28;20214;-65
2021/10/21 04:55:59;;;;;;;0.30;0.30;;;;;;;;;;5054577;28;20412;-65
2021/10/21 04:58:25;;;;;;;0.40;0.40;;;;;;;;;;5073693;28;20819;-65
2021/10/21 05:00:51;;;;;;;0.40;0.40;;;;;;;;;;5074188;28;20976;-65
2021/10/21 05:03:17;;;;;;;0.30;0.30;;;;;;;;;;5074542;28;20398;-65
2021/10/21 05:05:43;;;;;;;0.30;0.30;;;;;;;;;;5072838;28;20780;-65
2021/10/21 05:08:09;;;;;;;0.30;0.30;;;;;;;;;;5073473;28;20179;-65
2021/10/21 05:10:35;;;;;;;0.30;0.30;;;;;;;;;;5073490;28;20429;-65
2021/10/21 05:13:01;;;;;;;0.40;0.40;;;;;;;;;;5071071;28;20666;-64
2021/10/21 05:15:28;;;;;;;0.30;0.30;;;;;;;;;;5064097;28;20910;-65
2021/10/21 05:17:54;;;;;;;0.30;0.30;;;;;;;;;;5052815;28;20778;-64
2021/10/21 05:20:21;;;;;;;0.40;0.40;;;;;;;;;;5069306;28;20885;-65
2021/10/21 05:22:47;;;;;;;0.40;0.40;;;;;;;;;;5073932;28;20418;-65
2021/10/21 05:25:13;;;;;;;0.40;0.40;;;;;;;;;;5073906;28;20176;-65
2021/10/21 05:27:39;;;;;;;0.30;0.30;;;;;;;;;;5073846;28;20407;-65
2021/10/21 05:30:06;;;;;;;0.40;0.40;;;;;;;;;;5073620;28;20524;-65
2021/10/21 05:32:32;;;;;;;0.30;0.30;;;;;;;;;;5073510;28;20405;-65
2021/10/21 05:34:58;;;;;;;0.40;0.40;;;;;;;;;;5073724;28;20179;-64
2021/10/21 05:37:24;;;;;;;0.40;0.40;;;;;;;;;;5073660;28;20426;-65
2021/10/21 05:39:50;;;;;;;0.30;0.30;;;;;;;;;;5073555;28;20186;-65
2021/10/21 05:42:16;;;;;;;0.30;0.30;;;;;;;;;;5072926;28;20221;-65
2021/10/21 05:44:43;;;;;;;0.30;0.30;;;;;;;;;;5073232;28;20179;-65
2021/10/21 05:47:09;;;;;;;0.40;0.40;;;;;;;;;;5073468;28;20251;-65
2021/10/21 05:49:35;;;;;;;0.40;0.40;;;;;;;;;;5072849;28;20259;-65
2021/10/21 05:52:01;;;;;;;0.30;0.30;;;;;;;;;;5072631;28;20465;-65
2021/10/21 05:54:27;;;;;;;0.30;0.30;;;;;;;;;;5072934;28;20436;-65
2021/10/21 05:56:53;;;;;;;0.30;0.30;;;;;;;;;;5072950;28;20425;-65
2021/10/21 05:59:19;;;;;;;0.30;0.30;;;;;;;;;;5072900;28;20425;-65
2021/10/21 06:01:45;;;;;;;0.40;0.40;;;;;;;;;;5072225;28;20207;-65
2021/10/21 06:04:10;;;;;;;0.40;0.40;;;;;;;;;;5072650;28;20409;-65
2021/10/21 06:06:37;;;;;;;0.30;0.30;;;;;;;;;;5072617;28;20446;-65
2021/10/21 06:09:06;;;;;;;0.30;0.30;;;;;;;;;;5071513;28;20419;-65
2021/10/21 06:11:35;;;;;;;0.30;0.30;;;;;;;;;;5072216;28;20282;-64
2021/10/21 06:14:02;;;;;;;0.30;0.30;;;;;;;;;;5072683;28;20177;-65
2021/10/21 06:16:29;;;;;;;0.30;0.30;;;;;;;;;;5072529;28;20236;-65
2021/10/21 06:18:54;;;;;;;0.40;0.40;;;;;;;;;;5071010;28;20213;-65
2021/10/21 06:21:23;;;;;;;0.30;0.30;;;;;;;;;;5072051;28;20585;-65
2021/10/21 06:23:49;;;;;;;0.35;0.35;;;;;;;;;;5072590;28;20766;-65
2021/10/21 06:26:17;;;;;;;0.30;0.30;;;;;;;;;;5068831;28;20175;-65
2021/10/21 06:28:43;;;;;;;0.30;0.30;;;;;;;;;;5061303;28;20168;-65
2021/10/21 06:31:12;;;;;;;0.40;0.40;;;;;;;;;;5052815;28;20199;-65
2021/10/21 06:33:38;;;;;;;0.30;0.30;;;;;;;;;;5062390;28;20179;-65
2021/10/21 06:36:04;;;;;;;0.30;0.30;;;;;;;;;;5072425;28;20258;-65
2021/10/21 06:38:30;;;;;;;0.30;0.30;;;;;;;;;;5070552;28;20435;-64
2021/10/21 06:40:56;;;;;;;0.40;0.40;;;;;;;;;;5070373;28;20795;-65
2021/10/21 06:43:22;;;;;;;0.40;0.40;;;;;;;;;;5071417;28;20433;-64
2021/10/21 06:45:48;;;;;;;0.40;0.40;;;;;;;;;;5071954;28;20258;-65
2021/10/21 06:48:14;;;;;;;0.30;0.30;;;;;;;;;;5072055;28;20202;-65
2021/10/21 06:50:40;;;;;;;0.40;0.40;;;;;;;;;;5119382;22;20793;-65
2021/10/21 06:53:06;;;;;;;0.30;0.30;;;;;;;;;;5028021;28;20189;-65
2021/10/21 06:55:32;;;;;;;0.30;0.30;;;;;;;;;;5032040;28;20442;-65
2021/10/21 06:57:58;;;;;;;0.30;0.30;;;;;;;;;;5031018;28;20910;-65
2021/10/21 07:00:25;;;;;;;0.30;0.30;;;;;;;;;;5031561;28;20422;-65
2021/10/21 07:02:51;;;;;;;0.35;0.35;;;;;;;;;;5032032;28;20663;-65
2021/10/21 07:05:17;;;;;;;0.30;0.30;;;;;;;;;;5031304;28;20187;-65
2021/10/21 07:07:44;;;;;;;0.30;0.30;;;;;;;;;;5031731;28;20176;-66
2021/10/21 07:10:10;;;;;;;0.30;0.30;;;;;;;;;;5031318;28;20180;-65
2021/10/21 07:12:37;;;;;;;0.30;0.30;;;;;;;;;;5031082;28;20187;-65
2021/10/21 07:15:04;;;;;;;0.40;0.40;;;;;;;;;;5031561;28;20427;-65
2021/10/21 07:17:30;;;;;;;0.30;0.30;;;;;;;;;;5031325;28;20184;-64
2021/10/21 07:19:56;;;;;;;0.30;0.30;;;;;;;;;;5032024;28;20190;-65
2021/10/21 07:22:23;;;;;;;0.30;0.30;;;;;;;;;;5031091;28;20232;-65
2021/10/21 07:24:49;;;;;;;0.40;0.40;;;;;;;;;;5030882;28;20910;-65
2021/10/21 07:27:15;;;;;;;0.30;0.30;;;;;;;;;;5031447;28;20394;-65
2021/10/21 07:29:41;;;;;;;0.30;0.30;;;;;;;;;;5032126;28;20552;-65
2021/10/21 07:32:07;;;;;;;0.40;0.40;;;;;;;;;;5031572;28;20209;-66
2021/10/21 07:34:33;;;;;;;0.30;0.30;;;;;;;;;;5031331;28;20423;-65
2021/10/21 07:36:58;;;;;;;0.40;0.40;;;;;;;;;;5031252;28;20422;-64
2021/10/21 07:39:25;;;;;;;0.30;0.30;;;;;;;;;;5030283;28;20427;-66
2021/10/21 07:41:51;;;;;;;0.30;0.30;;;;;;;;;;5030075;28;20534;-65
2021/10/21 07:44:18;;;;;;;0.30;0.30;;;;;;;;;;5031610;28;20181;-65
2021/10/21 07:46:47;;;;;;;0.30;0.30;;;;;;;;;;5031198;28;20258;-65
2021/10/21 07:49:14;;;;;;;0.30;0.30;;;;;;;;;;5027949;28;20427;-65
2021/10/21 07:51:40;;;;;;;0.30;0.30;;;;;;;;;;5030613;28;20470;-66
2021/10/21 07:54:07;;;;;;;0.30;0.30;;;;;;;;;;5031865;28;20831;-65
2021/10/21 07:56:33;;;;;;;0.30;0.30;;;;;;;;;;5031200;28;20916;-65
2021/10/21 07:58:59;;;;;;;0.30;0.30;;;;;;;;;;5029917;28;20970;-65
2021/10/21 08:01:25;;;;;;;0.30;0.30;;;;;;;;;;5031479;28;20261;-65
2021/10/21 08:03:52;;;;;;;0.30;0.30;;;;;;;;;;5029658;28;20542;-65
2021/10/21 08:06:18;;;;;;;0.40;0.40;;;;;;;;;;5031517;28;20634;-65
2021/10/21 08:08:44;;;;;;;0.30;0.30;;;;;;;;;;5030896;28;20185;-65
2021/10/21 08:11:10;;;;;;;0.30;0.30;;;;;;;;;;5031256;28;20431;-65
2021/10/21 08:13:36;;;;;;;0.30;0.30;;;;;;;;;;5031730;28;20232;-65
2021/10/21 08:16:02;;;;;;;0.30;0.30;;;;;;;;;;5031516;28;20401;-65
2021/10/21 08:18:28;;;;;;;0.30;0.30;;;;;;;;;;5031286;28;20485;-65
2021/10/21 08:20:54;;;;;;;0.30;0.30;;;;;;;;;;5030727;28;20550;-65
2021/10/21 08:23:20;;;;;;;0.30;0.30;;;;;;;;;;5031549;28;20167;-65
2021/10/21 08:25:47;;;;;;;0.30;0.30;;;;;;;;;;5031356;28;20404;-65
2021/10/21 08:28:14;;;;;;;0.30;0.30;;;;;;;;;;5031214;28;20402;-65
2021/10/21 08:30:43;;;;;;;0.30;0.30;;;;;;;;;;5030809;28;20429;-64
2021/10/21 08:33:09;;;;;;;0.30;0.30;;;;;;;;;;5031036;28;20402;-64
2021/10/21 08:35:36;;;;;;;0.30;0.30;;;;;;;;;;5031255;28;20175;-65
2021/10/21 08:38:02;;;;;;;0.30;0.30;;;;;;;;;;5031078;28;20402;-65
2021/10/21 08:40:29;;;;;;;0.30;0.30;;;;;;;;;;5029705;28;20511;-65
2021/10/21 08:42:55;;;;;;;0.30;0.30;;;;;;;;;;5028189;28;20411;-65
2021/10/21 08:45:22;;;;;;;0.30;0.30;;;;;;;;;;5011178;28;20412;-65
2021/10/21 08:47:49;;;;;;;0.30;0.30;;;;;;;;;;5011404;28;20404;-65
2021/10/21 08:50:16;;;;;;;0.30;0.30;;;;;;;;;;5014544;28;20296;-65
2021/10/21 08:52:42;;;;;;;0.30;0.30;;;;;;;;;;5014647;28;20649;-65
2021/10/21 08:55:09;;;;;;;0.30;0.30;;;;;;;;;;5014478;28;20417;-65
2021/10/21 08:57:35;;;;;;;0.30;0.30;;;;;;;;;;5014570;28;20401;-65
2021/10/21 09:00:01;;;;;;;0.30;0.30;;;;;;;;;;5014501;28;20410;-65
2021/10/21 09:02:44;;;;;;;0.30;0.30;;;;;;;;;;5014502;28;21048;-65
2021/10/21 09:05:41;;;;;;;0.30;0.30;;;;;;;;;;5014131;28;20171;-65
2021/10/21 09:08:07;;;;;;;0.30;0.30;;;;;;;;;;5014092;28;20195;-65
2021/10/21 09:10:34;;;;;;;0.30;0.30;;;;;;;;;;5014334;28;20423;-65
2021/10/21 09:13:00;;;;;;;0.30;0.30;;;;;;;;;;5014127;28;20404;-65
2021/10/21 09:15:28;;;;;;;0.30;0.30;;;;;;;;;;5013808;28;20469;-65
2021/10/21 09:17:54;;;;;;;0.30;0.30;;;;;;;;;;5014277;28;20892;-65
2021/10/21 09:20:39;;;;;;;0.30;0.30;;;;;;;;;;5013980;28;20755;-65
2021/10/21 09:23:10;;;;;;;0.30;0.30;;;;;;;;;;5014231;28;20416;-66
2021/10/21 09:25:36;;;;;;;0.30;0.30;;;;;;;;;;5014145;28;20435;-66
2021/10/21 09:28:15;;;;;;;0.30;0.30;;;;;;;;;;5013630;28;20380;-65
2021/10/21 09:30:48;;;;;;;0.30;0.30;;;;;;;;;;5013801;28;20662;-66
2021/10/21 09:33:14;;;;;;;0.30;0.30;;;;;;;;;;5014034;28;20814;-65
2021/10/21 09:35:50;;;;;;;0.30;0.30;;;;;;;;;;5013918;28;20416;-66
2021/10/21 09:38:20;;;;;;;0.20;0.20;;;;;;;;;;5013325;28;20434;-66
2021/10/21 09:40:46;;;;;;;0.30;0.30;;;;;;;;;;5013656;28;20494;-66
2021/10/21 09:43:15;;;;;;;0.30;0.30;;;;;;;;;;5013596;28;20405;-66
2021/10/21 09:45:43;;;;;;;0.30;0.30;;;;;;;;;;5013410;28;20380;-65
2021/10/21 09:48:09;;;;;;;0.30;0.30;;;;;;;;;;5013534;28;20830;-65
2021/10/21 09:50:43;;;;;;;0.30;0.30;;;;;;;;;;5012848;28;20955;-65
2021/10/21 09:53:33;;;;;;;0.20;0.20;;;;;;;;;;5013559;28;20409;-66
2021/10/21 09:56:08;;;;;;;0.20;0.20;;;;;;;;;;5013558;28;20419;-66
2021/10/21 09:58:35;;;;;;;0.30;0.30;;;;;;;;;;5013729;28;20444;-66
2021/10/21 10:01:07;;;;;;;0.20;0.20;;;;;;;;;;5012424;28;20446;-66
2021/10/21 10:03:33;;;;;;;0.30;0.30;;;;;;;;;;5012770;28;20890;-66
2021/10/21 10:05:59;;;;;;;0.30;0.30;;;;;;;;;;5013048;28;20405;-66
2021/10/21 10:08:26;;;;;;;0.30;0.30;;;;;;;;;;5013202;28;20419;-65
2021/10/21 10:10:54;;;;;;;0.30;0.30;;;;;;;;;;5012745;28;20451;-66
2021/10/21 10:13:21;;;;;;;0.30;0.30;;;;;;;;;;5011658;28;20428;-65
2021/10/21 10:15:48;;;;;;;0.30;0.30;;;;;;;;;;5013613;28;20932;-66
2021/10/21 10:18:18;;;;;;;0.30;0.30;;;;;;;;;;5012885;28;20969;-65
2021/10/21 10:20:45;;;;;;;0.30;0.30;;;;;;;;;;5012635;28;20550;-65
2021/10/21 10:23:12;;;;;;;0.30;0.30;;;;;;;;;;5012794;28;20428;-66
2021/10/21 10:25:45;;;;;;;0.20;0.20;;;;;;;;;;5012863;28;20387;-66
2021/10/21 10:28:11;;;;;;;0.20;0.20;;;;;;;;;;5013201;28;20404;-68
2021/10/21 10:30:57;;;;;;;0.30;0.30;;;;;;;;;;5012795;28;20486;-66
2021/10/21 10:33:43;;;;;;;0.30;0.30;;;;;;;;;;5012708;28;20684;-66
2021/10/21 10:36:29;;;;;;;0.30;0.30;;;;;;;;;;5012795;28;20404;-66
2021/10/21 10:38:58;;;;;;;0.20;0.20;;;;;;;;;;5012881;28;20431;-66
2021/10/21 10:41:43;;;;;;;0.20;0.20;;;;;;;;;;5012414;28;20497;-66
2021/10/21 10:44:09;;;;;;;0.20;0.20;;;;;;;;;;5012690;28;20383;-66
2021/10/21 10:46:52;;;;;;;0.20;0.20;;;;;;;;;;5012302;28;20409;-66
2021/10/21 10:49:49;;;;;;;0.20;0.20;;;;;;;;;;5012652;28;20387;-66
2021/10/21 10:52:16;;;;;;;0.20;0.20;;;;;;;;;;5011060;28;20993;-67
2021/10/21 10:54:45;;;;;;;0.20;0.20;;;;;;;;;;5012836;28;20916;-67
2021/10/21 10:57:12;;;;;;;0.20;0.20;;;;;;;;;;5012209;28;20414;-66
2021/10/21 10:59:39;;;;;;;0.20;0.20;;;;;;;;;;5012460;28;20416;-66
2021/10/21 11:02:27;;;;;;;0.20;0.20;;;;;;;;;;5012114;28;21044;-66
2021/10/21 11:07:19;;;;;;;0.20;0.20;;;;;;;;;;5012000;28;20470;-66
2021/10/21 11:09:46;;;;;;;0.20;0.20;;;;;;;;;;5012521;28;20447;-66
2021/10/21 11:12:18;;;;;;;0.20;0.20;;;;;;;;;;5011582;28;20520;-66
2021/10/21 11:14:44;;;;;;;0.20;0.20;;;;;;;;;;5012166;28;20824;-66
2021/10/21 11:17:13;;;;;;;0.20;0.20;;;;;;;;;;5012294;28;20416;-66
2021/10/21 11:19:43;;;;;;;0.20;0.20;;;;;;;;;;5011640;28;20413;-66
2021/10/21 11:22:09;;;;;;;0.20;0.20;;;;;;;;;;5011470;28;20533;-66
2021/10/21 11:24:51;;;;;;;0.20;0.20;;;;;;;;;;5012125;28;20416;-66
2021/10/21 11:27:17;;;;;;;0.20;0.20;;;;;;;;;;5012029;28;20404;-66
2021/10/21 11:29:44;;;;;;;0.20;0.20;;;;;;;;;;5011485;28;20416;-67
2021/10/21 11:32:10;;;;;;;0.20;0.20;;;;;;;;;;5011465;28;20407;-66
2021/10/21 11:34:37;;;;;;;0.20;0.20;;;;;;;;;;5011746;28;20408;-66
2021/10/21 11:37:03;;;;;;;0.20;0.20;;;;;;;;;;5012076;28;20512;-66
2021/10/21 11:39:30;;;;;;;0.20;0.20;;;;;;;;;;5011774;28;20912;-66
2021/10/21 11:41:56;;;;;;;0.20;0.20;;;;;;;;;;5011312;28;20464;-66
2021/10/21 11:44:23;;;;;;;0.20;0.20;;;;;;;;;;5011819;28;20405;-66
2021/10/21 11:47:03;;;;;;;0.20;0.20;;;;;;;;;;5011860;28;20480;-66
2021/10/21 11:49:30;;;;;;;0.20;0.20;;;;;;;;;;5011849;28;20463;-67
2021/10/21 11:52:05;;;;;;;0.20;0.20;;;;;;;;;;5010906;28;20452;-66
2021/10/21 11:54:31;;;;;;;0.20;0.20;;;;;;;;;;5011462;28;20831;-67
2021/10/21 11:56:58;;;;;;;0.20;0.20;;;;;;;;;;5011786;28;20408;-67
2021/10/21 11:59:34;;;;;;;0.30;0.30;;;;;;;;;;5011631;28;20409;-67
2021/10/21 12:02:11;;;;;;;0.20;0.20;;;;;;;;;;5011323;28;20807;-66
2021/10/21 12:04:41;;;;;;;0.30;0.30;;;;;;;;;;5011695;28;20487;-66
2021/10/21 12:07:07;;;;;;;0.30;0.30;;;;;;;;;;5011702;28;20391;-65
2021/10/21 12:09:34;;;;;;;0.30;0.30;;;;;;;;;;5011651;28;20387;-65
2021/10/21 12:12:07;;;;;;;0.30;0.30;;;;;;;;;;5011258;28;20482;-67
2021/10/21 12:14:34;;;;;;;0.30;0.30;;;;;;;;;;5011088;28;20928;-66
2021/10/21 12:17:00;;;;;;;0.30;0.30;;;;;;;;;;5011615;28;20417;-67
2021/10/21 12:19:29;;;;;;;0.30;0.30;;;;;;;;;;5011535;28;20417;-67
2021/10/21 12:22:15;;;;;;;0.30;0.30;;;;;;;;;;5011111;28;20439;-65
2021/10/21 12:24:42;;;;;;;0.30;0.30;;;;;;;;;;5014102;28;20927;-65
2021/10/21 12:27:08;;;;;;;0.30;0.30;;;;;;;;;;5014641;28;20955;-65
2021/10/21 12:29:45;;;;;;;0.30;0.30;;;;;;;;;;5015284;28;20408;-67
2021/10/21 12:32:19;;;;;;;0.30;0.30;;;;;;;;;;5014972;28;20428;-67
2021/10/21 12:34:47;;;;;;;0.30;0.30;;;;;;;;;;5015194;28;20435;-67
2021/10/21 12:37:17;;;;;;;0.30;0.30;;;;;;;;;;5014649;28;20416;-67
2021/10/21 12:39:44;;;;;;;0.30;0.30;;;;;;;;;;5015012;28;20412;-66
2021/10/21 12:42:17;;;;;;;0.30;0.30;;;;;;;;;;5014713;28;20475;-67
2021/10/21 12:44:44;;;;;;;0.30;0.30;;;;;;;;;;5014875;28;20416;-67
2021/10/21 12:47:20;;;;;;;0.30;0.30;;;;;;;;;;5014697;28;20488;-67
2021/10/21 12:50:04;;;;;;;0.30;0.30;;;;;;;;;;5018243;28;20775;-67
2021/10/21 12:52:32;;;;;;;0.30;0.30;;;;;;;;;;5036812;22;20477;-65
2021/10/21 12:55:15;;;;;;;0.30;0.30;;;;;;;;;;5014434;28;20490;-66
2021/10/21 12:57:47;;;;;;;0.30;0.30;;;;;;;;;;5014651;28;20846;-68
2021/10/21 13:00:13;;;;;;;0.30;0.30;;;;;;;;;;5013343;28;20401;-67
2021/10/21 13:02:40;;;;;;;0.30;0.30;;;;;;;;;;5014223;28;20502;-67
2021/10/21 13:05:06;;;;;;;0.30;0.30;;;;;;;;;;5014331;28;20917;-66
2021/10/21 13:07:32;;;;;;;0.30;0.30;;;;;;;;;;5014268;28;20427;-65
2021/10/21 13:09:58;;;;;;;0.30;0.30;;;;;;;;;;5013889;28;20405;-68
2021/10/21 13:12:24;;;;;;;0.30;0.30;;;;;;;;;;5013958;28;20777;-65
2021/10/21 13:14:51;;;;;;;0.30;0.30;;;;;;;;;;5014389;28;20500;-66
2021/10/21 13:17:18;;;;;;;0.30;0.30;;;;;;;;;;5014268;28;20768;-66
2021/10/21 13:19:44;;;;;;;0.30;0.30;;;;;;;;;;5014289;28;20391;-67
2021/10/21 13:22:11;;;;;;;0.30;0.30;;;;;;;;;;5013143;28;20896;-68
2021/10/21 13:24:37;;;;;;;0.20;0.20;;;;;;;;;;5013962;28;20437;-67
2021/10/21 13:27:04;;;;;;;0.40;0.40;;;;;;;;;;5014028;28;20455;-66
2021/10/21 13:29:31;;;;;;;0.30;0.30;;;;;;;;;;5014030;28;20460;-67
2021/10/21 13:31:57;;;;;;;0.20;0.20;;;;;;;;;;5013171;28;20422;-67
2021/10/21 13:34:24;;;;;;;0.30;0.30;;;;;;;;;;5013331;28;20413;-67
2021/10/21 13:36:50;;;;;;;0.30;0.30;;;;;;;;;;5013960;28;20503;-67
2021/10/21 13:39:16;;;;;;;0.30;0.30;;;;;;;;;;5013701;28;20430;-67
2021/10/21 13:41:42;;;;;;;0.30;0.30;;;;;;;;;;5013414;28;20781;-66
2021/10/21 13:44:08;;;;;;;0.30;0.30;;;;;;;;;;5013140;28;20437;-65
2021/10/21 13:46:34;;;;;;;0.20;0.20;;;;;;;;;;4995990;28;20759;-67
2021/10/21 13:49:00;;;;;;;0.30;0.30;;;;;;;;;;5013396;28;20409;-66
2021/10/21 13:51:26;;;;;;;0.30;0.30;;;;;;;;;;5013020;28;20444;-66
2021/10/21 13:53:52;;;;;;;0.30;0.30;;;;;;;;;;5013346;28;20424;-66
2021/10/21 13:56:19;;;;;;;0.30;0.30;;;;;;;;;;5013161;28;20431;-66
2021/10/21 13:58:45;;;;;;;0.30;0.30;;;;;;;;;;5013392;28;20506;-67
2021/10/21 14:01:11;;;;;;;0.30;0.30;;;;;;;;;;5013074;28;20483;-66
2021/10/21 14:03:37;;;;;;;0.30;0.30;;;;;;;;;;5012837;28;20772;-67
2021/10/21 14:06:04;;;;;;;0.30;0.30;;;;;;;;;;5011067;28;20424;-66
2021/10/21 14:08:32;;;;;;;0.30;0.30;;;;;;;;;;5013125;28;20404;-66
2021/10/21 14:10:58;;;;;;;0.30;0.30;;;;;;;;;;5012962;28;20435;-66
2021/10/21 14:13:24;;;;;;;0.30;0.30;;;;;;;;;;5013095;28;20404;-68
2021/10/21 14:15:51;;;;;;;0.27;0.27;;;;;;;;;;5013076;28;20495;-66
2021/10/21 14:18:17;;;;;;;0.30;0.30;;;;;;;;;;5012669;28;20774;-66
2021/10/21 14:20:43;;;;;;;0.30;0.30;;;;;;;;;;5012797;28;20407;-66
2021/10/21 14:23:09;;;;;;;0.30;0.30;;;;;;;;;;5013038;28;20416;-66
2021/10/21 14:25:36;;;;;;;0.30;0.30;;;;;;;;;;5013003;28;20375;-64
2021/10/21 14:28:02;;;;;;;0.30;0.30;;;;;;;;;;5012720;28;20414;-66
2021/10/21 14:30:27;;;;;;;0.30;0.30;;;;;;;;;;5012522;28;20558;-66
2021/10/21 14:32:53;;;;;;;0.30;0.30;;;;;;;;;;5012747;28;20498;-66
2021/10/21 14:35:19;;;;;;;0.30;0.30;;;;;;;;;;4994783;28;20989;-65
2021/10/21 14:37:46;;;;;;;0.30;0.30;;;;;;;;;;5012729;28;20439;-67
2021/10/21 14:40:14;;;;;;;0.30;0.30;;;;;;;;;;5011944;28;20410;-65
2021/10/21 14:42:40;;;;;;;0.30;0.30;;;;;;;;;;5012479;28;20789;-65
2021/10/21 14:45:07;;;;;;;0.30;0.30;;;;;;;;;;5012632;28;20841;-65
2021/10/21 14:47:33;;;;;;;0.30;0.30;;;;;;;;;;5011780;28;20412;-65